sensor_id;sensor_type;location;lat;lon;timestamp;pressure;altitude;pressure_sealevel;temperature;humidity
48892;BME280;50130;52.150;5.236;2022-11-23T00:00:30;99299.0;;;10.03;98.03
48892;BME280;50130;52.150;5.236;2022-11-23T00:02:05;99300.0;;;10.03;98.31
48892;BME280;50130;52.150;5.236;2022-11-23T00:03:42;99297.0;;;9.98;98.66
48892;BME280;50130;52.150;5.236;2022-11-23T00:06:55;99297.0;;;10.07;98.14
48892;BME280;50130;52.150;5.236;2022-11-23T00:08:31;99298.0;;;10.14;97.92
48892;BME280;50130;52.150;5.236;2022-11-23T00:10:08;99296.0;;;10.18;97.69
48892;BME280;50130;52.150;5.236;2022-11-23T00:11:44;99300.0;;;10.05;98.22
48892;BME280;50130;52.150;5.236;2022-11-23T00:14:57;99303.0;;;10.21;97.65
48892;BME280;50130;52.150;5.236;2022-11-23T00:16:33;99300.0;;;10.1;97.9
48892;BME280;50130;52.150;5.236;2022-11-23T00:18:09;99312.0;;;10.14;98.03
48892;BME280;50130;52.150;5.236;2022-11-23T00:21:23;99312.0;;;10.05;98.44
48892;BME280;50130;52.150;5.236;2022-11-23T00:23:01;99309.0;;;10.03;98.29
48892;BME280;50130;52.150;5.236;2022-11-23T00:24:37;99311.0;;;10.11;98.32
48892;BME280;50130;52.150;5.236;2022-11-23T00:27:50;99316.0;;;10.07;98.59
48892;BME280;50130;52.150;5.236;2022-11-23T00:29:27;99325.0;;;10.11;98.27
48892;BME280;50130;52.150;5.236;2022-11-23T00:31:03;99324.0;;;10.21;97.83
48892;BME280;50130;52.150;5.236;2022-11-23T00:32:40;99327.0;;;10.21;97.74
48892;BME280;50130;52.150;5.236;2022-11-23T00:36:01;99331.0;;;10.24;97.73
48892;BME280;50130;52.150;5.236;2022-11-23T00:37:38;99333.0;;;10.32;97.3
48892;BME280;50130;52.150;5.236;2022-11-23T00:39:14;99331.0;;;10.38;96.78
48892;BME280;50130;52.150;5.236;2022-11-23T00:42:32;99331.0;;;10.4;96.56
48892;BME280;50130;52.150;5.236;2022-11-23T00:44:08;99337.0;;;10.29;96.84
48892;BME280;50130;52.150;5.236;2022-11-23T00:47:21;99342.0;;;10.3;97.21
48892;BME280;50130;52.150;5.236;2022-11-23T00:50:33;99343.0;;;10.26;97.05
48892;BME280;50130;52.150;5.236;2022-11-23T00:52:09;99340.0;;;10.37;96.82
48892;BME280;50130;52.150;5.236;2022-11-23T00:53:46;99339.0;;;10.24;97.39
48892;BME280;50130;52.150;5.236;2022-11-23T00:57:00;99346.0;;;10.24;97.29
48892;BME280;50130;52.150;5.236;2022-11-23T00:58:38;99342.0;;;10.13;97.79
48892;BME280;50130;52.150;5.236;2022-11-23T01:00:15;99350.0;;;10.18;97.71
48892;BME280;50130;52.150;5.236;2022-11-23T01:01:51;99347.0;;;10.06;97.8
48892;BME280;50130;52.150;5.236;2022-11-23T01:05:05;99358.0;;;10.31;97.07
48892;BME280;50130;52.150;5.236;2022-11-23T01:06:42;99358.0;;;10.32;96.61
48892;BME280;50130;52.150;5.236;2022-11-23T01:08:18;99358.0;;;10.26;97.02
48892;BME280;50130;52.150;5.236;2022-11-23T01:13:08;99363.0;;;10.18;97.43
48892;BME280;50130;52.150;5.236;2022-11-23T01:14:44;99360.0;;;10.26;97.02
48892;BME280;50130;52.150;5.236;2022-11-23T01:17:59;99360.0;;;10.22;96.95
48892;BME280;50130;52.150;5.236;2022-11-23T01:19:36;99361.0;;;10.26;96.88
48892;BME280;50130;52.150;5.236;2022-11-23T01:21:13;99363.0;;;10.29;96.56
48892;BME280;50130;52.150;5.236;2022-11-23T01:22:50;99368.0;;;10.21;96.99
48892;BME280;50130;52.150;5.236;2022-11-23T01:26:04;99363.0;;;10.34;96.6
48892;BME280;50130;52.150;5.236;2022-11-23T01:27:41;99364.0;;;10.26;96.54
48892;BME280;50130;52.150;5.236;2022-11-23T01:29:17;99364.0;;;10.37;96.22
48892;BME280;50130;52.150;5.236;2022-11-23T01:32:29;99370.0;;;10.21;96.65
48892;BME280;50130;52.150;5.236;2022-11-23T01:34:06;99370.0;;;10.25;96.7
48892;BME280;50130;52.150;5.236;2022-11-23T01:35:43;99372.0;;;10.3;96.72
48892;BME280;50130;52.150;5.236;2022-11-23T01:38:56;99368.0;;;10.37;96.33
48892;BME280;50130;52.150;5.236;2022-11-23T01:40:39;99371.0;;;10.41;96.22
48892;BME280;50130;52.150;5.236;2022-11-23T01:42:16;99375.0;;;10.39;96.0
48892;BME280;50130;52.150;5.236;2022-11-23T01:43:52;99375.0;;;10.4;96.18
48892;BME280;50130;52.150;5.236;2022-11-23T01:47:10;99375.0;;;10.46;95.69
48892;BME280;50130;52.150;5.236;2022-11-23T01:48:51;99375.0;;;10.44;95.73
48892;BME280;50130;52.150;5.236;2022-11-23T01:50:30;99381.0;;;10.35;95.94
48892;BME280;50130;52.150;5.236;2022-11-23T01:52:10;99380.0;;;10.34;96.45
48892;BME280;50130;52.150;5.236;2022-11-23T01:55:30;99383.0;;;10.46;95.95
48892;BME280;50130;52.150;5.236;2022-11-23T01:57:11;99381.0;;;10.43;95.87
48892;BME280;50130;52.150;5.236;2022-11-23T01:58:56;99378.0;;;10.4;95.88
48892;BME280;50130;52.150;5.236;2022-11-23T02:00:35;99383.0;;;10.33;96.18
48892;BME280;50130;52.150;5.236;2022-11-23T02:03:50;99383.0;;;10.32;96.48
48892;BME280;50130;52.150;5.236;2022-11-23T02:05:31;99383.0;;;10.39;96.48
48892;BME280;50130;52.150;5.236;2022-11-23T02:07:13;99388.0;;;10.33;96.42
48892;BME280;50130;52.150;5.236;2022-11-23T02:08:52;99389.0;;;10.32;96.65
48892;BME280;50130;52.150;5.236;2022-11-23T02:12:09;99391.0;;;10.29;96.78
48892;BME280;50130;52.150;5.236;2022-11-23T02:13:47;99394.0;;;10.29;96.84
48892;BME280;50130;52.150;5.236;2022-11-23T02:15:24;99396.0;;;10.35;96.62
48892;BME280;50130;52.150;5.236;2022-11-23T02:18:38;99388.0;;;10.27;96.82
48892;BME280;50130;52.150;5.236;2022-11-23T02:20:18;99394.0;;;10.33;96.66
48892;BME280;50130;52.150;5.236;2022-11-23T02:21:55;99395.0;;;10.41;96.48
48892;BME280;50130;52.150;5.236;2022-11-23T02:23:35;99393.0;;;10.38;96.44
48892;BME280;50130;52.150;5.236;2022-11-23T02:27:12;99396.0;;;10.42;96.06
48892;BME280;50130;52.150;5.236;2022-11-23T02:28:53;99400.0;;;10.36;96.19
48892;BME280;50130;52.150;5.236;2022-11-23T02:30:33;99397.0;;;10.28;96.43
48892;BME280;50130;52.150;5.236;2022-11-23T02:32:17;99396.0;;;10.19;96.8
48892;BME280;50130;52.150;5.236;2022-11-23T02:33:55;99395.0;;;10.13;97.47
48892;BME280;50130;52.150;5.236;2022-11-23T02:37:10;99391.0;;;10.16;97.31
48892;BME280;50130;52.150;5.236;2022-11-23T02:38:46;99396.0;;;10.17;97.16
48892;BME280;50130;52.150;5.236;2022-11-23T02:40:26;99397.0;;;10.19;97.18
48892;BME280;50130;52.150;5.236;2022-11-23T02:43:41;99399.0;;;10.13;97.22
48892;BME280;50130;52.150;5.236;2022-11-23T02:45:23;99393.0;;;10.05;97.26
48892;BME280;50130;52.150;5.236;2022-11-23T02:47:04;99398.0;;;10.14;96.92
48892;BME280;50130;52.150;5.236;2022-11-23T02:48:41;99400.0;;;10.19;96.64
48892;BME280;50130;52.150;5.236;2022-11-23T02:51:53;99401.0;;;10.17;96.26
48892;BME280;50130;52.150;5.236;2022-11-23T02:53:30;99405.0;;;10.21;96.18
48892;BME280;50130;52.150;5.236;2022-11-23T02:55:06;99409.0;;;10.06;96.86
48892;BME280;50130;52.150;5.236;2022-11-23T02:58:19;99406.0;;;10.08;96.46
48892;BME280;50130;52.150;5.236;2022-11-23T02:59:55;99402.0;;;10.01;96.65
48892;BME280;50130;52.150;5.236;2022-11-23T03:01:32;99402.0;;;9.9;96.88
48892;BME280;50130;52.150;5.236;2022-11-23T03:04:45;99405.0;;;9.98;96.89
48892;BME280;50130;52.150;5.236;2022-11-23T03:06:21;99405.0;;;10.13;96.34
48892;BME280;50130;52.150;5.236;2022-11-23T03:07:57;99405.0;;;9.91;96.29
48892;BME280;50130;52.150;5.236;2022-11-23T03:09:33;99405.0;;;9.86;96.56
48892;BME280;50130;52.150;5.236;2022-11-23T03:12:46;99408.0;;;9.97;96.22
48892;BME280;50130;52.150;5.236;2022-11-23T03:14:22;99409.0;;;10.0;95.74
48892;BME280;50130;52.150;5.236;2022-11-23T03:15:58;99413.0;;;10.05;95.77
48892;BME280;50130;52.150;5.236;2022-11-23T03:19:11;99414.0;;;9.99;95.77
48892;BME280;50130;52.150;5.236;2022-11-23T03:20:47;99414.0;;;9.98;96.04
48892;BME280;50130;52.150;5.236;2022-11-23T03:22:23;99414.0;;;9.92;96.03
48892;BME280;50130;52.150;5.236;2022-11-23T03:25:35;99415.0;;;9.81;95.96
48892;BME280;50130;52.150;5.236;2022-11-23T03:27:12;99421.0;;;9.81;95.92
48892;BME280;50130;52.150;5.236;2022-11-23T03:28:48;99420.0;;;9.86;95.76
48892;BME280;50130;52.150;5.236;2022-11-23T03:30:24;99421.0;;;9.98;95.34
48892;BME280;50130;52.150;5.236;2022-11-23T03:33:38;99418.0;;;9.92;95.5
48892;BME280;50130;52.150;5.236;2022-11-23T03:35:14;99417.0;;;9.98;95.26
48892;BME280;50130;52.150;5.236;2022-11-23T03:36:50;99415.0;;;9.98;95.21
48892;BME280;50130;52.150;5.236;2022-11-23T03:40:03;99418.0;;;9.99;94.95
48892;BME280;50130;52.150;5.236;2022-11-23T03:41:39;99420.0;;;10.0;94.97
48892;BME280;50130;52.150;5.236;2022-11-23T03:43:16;99419.0;;;9.96;94.99
48892;BME280;50130;52.150;5.236;2022-11-23T03:46:29;99422.0;;;10.02;94.85
48892;BME280;50130;52.150;5.236;2022-11-23T03:48:05;99422.0;;;10.03;94.4
48892;BME280;50130;52.150;5.236;2022-11-23T03:49:42;99427.0;;;10.06;94.4
48892;BME280;50130;52.150;5.236;2022-11-23T03:51:18;99421.0;;;10.03;94.42
48892;BME280;50130;52.150;5.236;2022-11-23T03:54:32;99426.0;;;9.96;94.7
48892;BME280;50130;52.150;5.236;2022-11-23T03:56:08;99420.0;;;10.01;94.41
48892;BME280;50130;52.150;5.236;2022-11-23T03:57:46;99419.0;;;10.15;94.2
48892;BME280;50130;52.150;5.236;2022-11-23T04:00:59;99420.0;;;10.01;94.28
48892;BME280;50130;52.150;5.236;2022-11-23T04:02:36;99416.0;;;10.05;94.22
48892;BME280;50130;52.150;5.236;2022-11-23T04:04:12;99416.0;;;9.92;94.72
48892;BME280;50130;52.150;5.236;2022-11-23T04:07:24;99411.0;;;9.94;94.6
48892;BME280;50130;52.150;5.236;2022-11-23T04:09:01;99413.0;;;10.03;94.42
48892;BME280;50130;52.150;5.236;2022-11-23T04:10:37;99410.0;;;10.06;94.27
48892;BME280;50130;52.150;5.236;2022-11-23T04:13:49;99411.0;;;10.13;93.89
48892;BME280;50130;52.150;5.236;2022-11-23T04:15:25;99408.0;;;10.02;94.57
48892;BME280;50130;52.150;5.236;2022-11-23T04:17:02;99407.0;;;10.03;94.49
48892;BME280;50130;52.150;5.236;2022-11-23T04:18:39;99405.0;;;9.98;94.64
48892;BME280;50130;52.150;5.236;2022-11-23T04:21:52;99420.0;;;10.02;94.55
48892;BME280;50130;52.150;5.236;2022-11-23T04:23:28;99419.0;;;10.13;94.15
48892;BME280;50130;52.150;5.236;2022-11-23T04:25:05;99416.0;;;10.3;93.43
48892;BME280;50130;52.150;5.236;2022-11-23T04:28:18;99425.0;;;10.25;93.39
48892;BME280;50130;52.150;5.236;2022-11-23T04:29:54;99421.0;;;10.23;93.64
48892;BME280;50130;52.150;5.236;2022-11-23T04:31:30;99421.0;;;10.21;93.88
48892;BME280;50130;52.150;5.236;2022-11-23T04:34:44;99417.0;;;10.09;94.4
48892;BME280;50130;52.150;5.236;2022-11-23T04:36:20;99419.0;;;10.14;94.1
48892;BME280;50130;52.150;5.236;2022-11-23T04:37:56;99418.0;;;10.07;94.45
48892;BME280;50130;52.150;5.236;2022-11-23T04:39:32;99414.0;;;9.94;95.1
48892;BME280;50130;52.150;5.236;2022-11-23T04:42:46;99420.0;;;10.03;94.99
48892;BME280;50130;52.150;5.236;2022-11-23T04:44:22;99415.0;;;9.98;95.12
48892;BME280;50130;52.150;5.236;2022-11-23T04:45:58;99418.0;;;9.99;95.02
48892;BME280;50130;52.150;5.236;2022-11-23T04:49:12;99422.0;;;10.05;94.97
48892;BME280;50130;52.150;5.236;2022-11-23T04:50:49;99416.0;;;10.01;94.79
48892;BME280;50130;52.150;5.236;2022-11-23T04:52:25;99419.0;;;10.17;94.12
48892;BME280;50130;52.150;5.236;2022-11-23T04:55:37;99415.0;;;10.11;94.19
48892;BME280;50130;52.150;5.236;2022-11-23T04:57:15;99413.0;;;9.98;94.5
48892;BME280;50130;52.150;5.236;2022-11-23T04:58:50;99415.0;;;9.98;94.65
48892;BME280;50130;52.150;5.236;2022-11-23T05:00:26;99416.0;;;10.02;94.53
48892;BME280;50130;52.150;5.236;2022-11-23T05:03:39;99415.0;;;9.99;94.44
48892;BME280;50130;52.150;5.236;2022-11-23T05:05:16;99414.0;;;10.01;94.29
48892;BME280;50130;52.150;5.236;2022-11-23T05:06:52;99413.0;;;9.89;94.53
48892;BME280;50130;52.150;5.236;2022-11-23T05:10:07;99414.0;;;9.85;94.94
48892;BME280;50130;52.150;5.236;2022-11-23T05:11:43;99412.0;;;9.97;94.28
48892;BME280;50130;52.150;5.236;2022-11-23T05:13:19;99409.0;;;9.85;94.37
48892;BME280;50130;52.150;5.236;2022-11-23T05:16:31;99413.0;;;9.81;94.73
48892;BME280;50130;52.150;5.236;2022-11-23T05:18:10;99409.0;;;9.98;94.05
48892;BME280;50130;52.150;5.236;2022-11-23T05:19:47;99411.0;;;9.85;94.26
48892;BME280;50130;52.150;5.236;2022-11-23T05:21:23;99411.0;;;9.89;94.21
48892;BME280;50130;52.150;5.236;2022-11-23T05:24:36;99412.0;;;9.98;93.97
48892;BME280;50130;52.150;5.236;2022-11-23T05:26:13;99415.0;;;9.92;94.11
48892;BME280;50130;52.150;5.236;2022-11-23T05:27:49;99423.0;;;9.86;94.26
48892;BME280;50130;52.150;5.236;2022-11-23T05:31:03;99419.0;;;9.84;94.59
48892;BME280;50130;52.150;5.236;2022-11-23T05:32:40;99417.0;;;9.73;95.2
48892;BME280;50130;52.150;5.236;2022-11-23T05:34:17;99415.0;;;9.88;94.8
48892;BME280;50130;52.150;5.236;2022-11-23T05:37:29;99421.0;;;9.81;94.76
48892;BME280;50130;52.150;5.236;2022-11-23T05:39:05;99421.0;;;9.86;94.72
48892;BME280;50130;52.150;5.236;2022-11-23T05:40:43;99427.0;;;9.89;94.62
48892;BME280;50130;52.150;5.236;2022-11-23T05:43:56;99424.0;;;10.0;94.08
48892;BME280;50130;52.150;5.236;2022-11-23T05:45:32;99432.0;;;9.91;94.05
48892;BME280;50130;52.150;5.236;2022-11-23T05:47:08;99435.0;;;9.94;94.18
48892;BME280;50130;52.150;5.236;2022-11-23T05:48:44;99434.0;;;9.91;94.41
48892;BME280;50130;52.150;5.236;2022-11-23T05:51:59;99438.0;;;9.92;94.17
48892;BME280;50130;52.150;5.236;2022-11-23T05:53:35;99435.0;;;9.98;94.07
48892;BME280;50130;52.150;5.236;2022-11-23T05:55:11;99439.0;;;9.99;93.24
48892;BME280;50130;52.150;5.236;2022-11-23T05:58:24;99436.0;;;9.99;93.26
48892;BME280;50130;52.150;5.236;2022-11-23T06:00:01;99439.0;;;10.08;92.97
48892;BME280;50130;52.150;5.236;2022-11-23T06:01:39;99439.0;;;10.14;93.03
48892;BME280;50130;52.150;5.236;2022-11-23T06:03:15;99440.0;;;10.06;92.91
48892;BME280;50130;52.150;5.236;2022-11-23T06:06:27;99437.0;;;10.08;92.69
48892;BME280;50130;52.150;5.236;2022-11-23T06:08:04;99436.0;;;10.01;92.4
48892;BME280;50130;52.150;5.236;2022-11-23T06:09:40;99432.0;;;10.06;92.39
48892;BME280;50130;52.150;5.236;2022-11-23T06:12:52;99432.0;;;9.98;92.66
48892;BME280;50130;52.150;5.236;2022-11-23T06:14:28;99433.0;;;10.06;92.82
48892;BME280;50130;52.150;5.236;2022-11-23T06:16:05;99430.0;;;9.97;93.08
48892;BME280;50130;52.150;5.236;2022-11-23T06:19:17;99430.0;;;10.07;92.48
48892;BME280;50130;52.150;5.236;2022-11-23T06:20:53;99428.0;;;10.01;92.81
48892;BME280;50130;52.150;5.236;2022-11-23T06:22:29;99432.0;;;10.15;92.21
48892;BME280;50130;52.150;5.236;2022-11-23T06:24:06;99435.0;;;10.14;92.03
48892;BME280;50130;52.150;5.236;2022-11-23T06:27:18;99434.0;;;10.15;91.8
48892;BME280;50130;52.150;5.236;2022-11-23T06:28:54;99427.0;;;10.13;91.82
48892;BME280;50130;52.150;5.236;2022-11-23T06:30:30;99432.0;;;10.14;91.89
48892;BME280;50130;52.150;5.236;2022-11-23T06:33:44;99430.0;;;10.01;92.16
48892;BME280;50130;52.150;5.236;2022-11-23T06:35:20;99432.0;;;10.13;91.61
48892;BME280;50130;52.150;5.236;2022-11-23T06:36:57;99431.0;;;10.14;91.49
48892;BME280;50130;52.150;5.236;2022-11-23T06:40:11;99431.0;;;9.98;91.74
48892;BME280;50130;52.150;5.236;2022-11-23T06:41:46;99430.0;;;9.98;92.12
48892;BME280;50130;52.150;5.236;2022-11-23T06:43:23;99430.0;;;9.97;91.83
48892;BME280;50130;52.150;5.236;2022-11-23T06:44:59;99430.0;;;10.08;91.5
48892;BME280;50130;52.150;5.236;2022-11-23T06:48:11;99428.0;;;10.01;91.62
48892;BME280;50130;52.150;5.236;2022-11-23T06:49:49;99427.0;;;10.14;90.89
48892;BME280;50130;52.150;5.236;2022-11-23T06:51:25;99430.0;;;10.13;90.81
48892;BME280;50130;52.150;5.236;2022-11-23T06:54:38;99426.0;;;10.07;90.83
48892;BME280;50130;52.150;5.236;2022-11-23T06:56:14;99439.0;;;10.06;90.94
48892;BME280;50130;52.150;5.236;2022-11-23T06:57:52;99439.0;;;10.03;90.86
48892;BME280;50130;52.150;5.236;2022-11-23T07:01:06;99450.0;;;9.98;90.83
48892;BME280;50130;52.150;5.236;2022-11-23T07:02:43;99451.0;;;9.89;90.6
48892;BME280;50130;52.150;5.236;2022-11-23T07:04:26;99455.0;;;9.72;90.99
48892;BME280;50130;52.150;5.236;2022-11-23T07:06:04;99457.0;;;9.86;90.52
48892;BME280;50130;52.150;5.236;2022-11-23T07:09:17;99462.0;;;9.73;90.62
48892;BME280;50130;52.150;5.236;2022-11-23T07:10:58;99457.0;;;9.64;90.74
48892;BME280;50130;52.150;5.236;2022-11-23T07:12:35;99464.0;;;9.56;90.73
48892;BME280;50130;52.150;5.236;2022-11-23T07:15:47;99463.0;;;9.59;90.78
48892;BME280;50130;52.150;5.236;2022-11-23T07:17:24;99470.0;;;9.51;91.05
48892;BME280;50130;52.150;5.236;2022-11-23T07:19:00;99470.0;;;9.56;90.53
48892;BME280;50130;52.150;5.236;2022-11-23T07:20:36;99475.0;;;9.46;90.73
48892;BME280;50130;52.150;5.236;2022-11-23T07:23:49;99473.0;;;9.34;90.93
48892;BME280;50130;52.150;5.236;2022-11-23T07:25:25;99480.0;;;9.39;90.74
48892;BME280;50130;52.150;5.236;2022-11-23T07:27:01;99480.0;;;9.42;90.63
48892;BME280;50130;52.150;5.236;2022-11-23T07:30:14;99483.0;;;9.39;90.61
48892;BME280;50130;52.150;5.236;2022-11-23T07:31:50;99485.0;;;9.28;90.91
48892;BME280;50130;52.150;5.236;2022-11-23T07:33:26;99487.0;;;9.31;91.16
48892;BME280;50130;52.150;5.236;2022-11-23T07:36:40;99489.0;;;9.3;91.43
48892;BME280;50130;52.150;5.236;2022-11-23T07:38:16;99490.0;;;9.25;91.44
48892;BME280;50130;52.150;5.236;2022-11-23T07:39:52;99497.0;;;9.32;91.39
48892;BME280;50130;52.150;5.236;2022-11-23T07:41:28;99498.0;;;9.5;90.66
48892;BME280;50130;52.150;5.236;2022-11-23T07:44:42;99507.0;;;9.48;90.82
48892;BME280;50130;52.150;5.236;2022-11-23T07:46:19;99503.0;;;9.47;91.07
48892;BME280;50130;52.150;5.236;2022-11-23T07:47:57;99506.0;;;9.39;91.47
48892;BME280;50130;52.150;5.236;2022-11-23T07:52:46;99512.0;;;9.3;91.97
48892;BME280;50130;52.150;5.236;2022-11-23T07:54:22;99517.0;;;9.38;92.0
48892;BME280;50130;52.150;5.236;2022-11-23T07:57:35;99514.0;;;9.35;92.07
48892;BME280;50130;52.150;5.236;2022-11-23T07:59:11;99519.0;;;9.4;92.24
48892;BME280;50130;52.150;5.236;2022-11-23T08:00:47;99520.0;;;9.44;92.19
48892;BME280;50130;52.150;5.236;2022-11-23T08:02:23;99522.0;;;9.39;92.37
48892;BME280;50130;52.150;5.236;2022-11-23T08:05:36;99522.0;;;9.5;91.93
48892;BME280;50130;52.150;5.236;2022-11-23T08:07:12;99513.0;;;9.4;92.11
48892;BME280;50130;52.150;5.236;2022-11-23T08:08:48;99516.0;;;9.46;92.36
48892;BME280;50130;52.150;5.236;2022-11-23T08:12:03;99518.0;;;9.52;92.14
48892;BME280;50130;52.150;5.236;2022-11-23T08:13:40;99521.0;;;9.49;92.55
48892;BME280;50130;52.150;5.236;2022-11-23T08:15:16;99517.0;;;9.59;92.24
48892;BME280;50130;52.150;5.236;2022-11-23T08:18:28;99522.0;;;9.74;91.78
48892;BME280;50130;52.150;5.236;2022-11-23T08:20:05;99521.0;;;9.63;92.16
48892;BME280;50130;52.150;5.236;2022-11-23T08:21:42;99526.0;;;9.65;92.25
48892;BME280;50130;52.150;5.236;2022-11-23T08:23:19;99525.0;;;9.66;92.07
48892;BME280;50130;52.150;5.236;2022-11-23T08:26:32;99530.0;;;9.69;92.17
48892;BME280;50130;52.150;5.236;2022-11-23T08:28:09;99527.0;;;9.74;92.12
48892;BME280;50130;52.150;5.236;2022-11-23T08:29:45;99533.0;;;9.67;92.3
48892;BME280;50130;52.150;5.236;2022-11-23T08:32:58;99532.0;;;9.64;92.27
48892;BME280;50130;52.150;5.236;2022-11-23T08:45:56;99531.0;;;9.51;95.31
48892;BME280;50130;52.150;5.236;2022-11-23T08:47:33;99531.0;;;9.5;95.85
48892;BME280;50130;52.150;5.236;2022-11-23T08:49:09;99526.0;;;9.64;95.26
48892;BME280;50130;52.150;5.236;2022-11-23T08:50:45;99526.0;;;9.69;95.16
48892;BME280;50130;52.150;5.236;2022-11-23T08:53:57;99523.0;;;9.69;95.21
48892;BME280;50130;52.150;5.236;2022-11-23T08:55:34;99531.0;;;9.59;95.23
48892;BME280;50130;52.150;5.236;2022-11-23T08:57:10;99530.0;;;9.63;95.32
48892;BME280;50130;52.150;5.236;2022-11-23T09:00:25;99526.0;;;9.73;95.08
48892;BME280;50130;52.150;5.236;2022-11-23T09:02:02;99526.0;;;9.69;95.27
48892;BME280;50130;52.150;5.236;2022-11-23T09:03:38;99521.0;;;9.73;95.23
48892;BME280;50130;52.150;5.236;2022-11-23T09:05:15;99527.0;;;9.65;95.18
48892;BME280;50130;52.150;5.236;2022-11-23T09:08:29;99523.0;;;9.78;94.81
48892;BME280;50130;52.150;5.236;2022-11-23T09:10:07;99525.0;;;9.69;94.43
48892;BME280;50130;52.150;5.236;2022-11-23T09:11:43;99522.0;;;9.68;94.98
48892;BME280;50130;52.150;5.236;2022-11-23T09:14:57;99521.0;;;9.81;94.07
48892;BME280;50130;52.150;5.236;2022-11-23T09:16:33;99523.0;;;9.76;93.29
48892;BME280;50130;52.150;5.236;2022-11-23T09:18:09;99516.0;;;9.81;93.3
48892;BME280;50130;52.150;5.236;2022-11-23T09:19:45;99516.0;;;9.65;93.3
48892;BME280;50130;52.150;5.236;2022-11-23T09:22:57;99513.0;;;9.73;93.07
48892;BME280;50130;52.150;5.236;2022-11-23T09:24:33;99511.0;;;9.85;92.35
48892;BME280;50130;52.150;5.236;2022-11-23T09:26:09;99505.0;;;9.98;92.36
48892;BME280;50130;52.150;5.236;2022-11-23T09:29:24;99508.0;;;9.98;91.72
48892;BME280;50130;52.150;5.236;2022-11-23T09:31:02;99509.0;;;9.89;91.04
48892;BME280;50130;52.150;5.236;2022-11-23T09:32:40;99505.0;;;9.9;91.27
48892;BME280;50130;52.150;5.236;2022-11-23T09:35:56;99502.0;;;10.01;90.22
48892;BME280;50130;52.150;5.236;2022-11-23T09:37:34;99495.0;;;10.09;89.73
48892;BME280;50130;52.150;5.236;2022-11-23T09:39:11;99498.0;;;10.23;89.44
48892;BME280;50130;52.150;5.236;2022-11-23T09:40:51;99492.0;;;10.02;87.42
48892;BME280;50130;52.150;5.236;2022-11-23T09:44:37;99498.0;;;10.08;87.64
48892;BME280;50130;52.150;5.236;2022-11-23T09:46:24;99491.0;;;10.1;87.55
48892;BME280;50130;52.150;5.236;2022-11-23T09:50:11;99490.0;;;10.07;87.42
48892;BME280;50130;52.150;5.236;2022-11-23T10:19:20;99447.0;;;10.38;81.92
48892;BME280;50130;52.150;5.236;2022-11-23T10:21:06;99446.0;;;10.47;82.58
48892;BME280;50130;52.150;5.236;2022-11-23T10:22:54;99439.0;;;10.43;81.91
48892;BME280;50130;52.150;5.236;2022-11-23T10:26:16;99445.0;;;10.53;82.09
48892;BME280;50130;52.150;5.236;2022-11-23T10:27:57;99436.0;;;10.42;82.6
48892;BME280;50130;52.150;5.236;2022-11-23T10:29:36;99438.0;;;10.38;81.59
48892;BME280;50130;52.150;5.236;2022-11-23T10:31:16;99451.0;;;10.61;81.97
48892;BME280;50130;52.150;5.236;2022-11-23T10:34:45;99445.0;;;10.62;80.88
48892;BME280;50130;52.150;5.236;2022-11-23T10:36:24;99462.0;;;10.67;81.22
48892;BME280;50130;52.150;5.236;2022-11-23T10:38:08;99452.0;;;10.57;80.77
48892;BME280;50130;52.150;5.236;2022-11-23T10:39:45;99455.0;;;10.62;81.55
48892;BME280;50130;52.150;5.236;2022-11-23T10:41:21;99451.0;;;10.75;81.81
48892;BME280;50130;52.150;5.236;2022-11-23T10:44:37;99456.0;;;10.82;81.19
48892;BME280;50130;52.150;5.236;2022-11-23T10:46:25;99445.0;;;10.74;80.44
48892;BME280;50130;52.150;5.236;2022-11-23T10:48:32;99450.0;;;10.67;80.58
48892;BME280;50130;52.150;5.236;2022-11-23T10:50:24;99450.0;;;10.71;80.28
48892;BME280;50130;52.150;5.236;2022-11-23T10:52:04;99449.0;;;10.62;80.3
48892;BME280;50130;52.150;5.236;2022-11-23T10:55:23;99453.0;;;10.68;80.47
48892;BME280;50130;52.150;5.236;2022-11-23T10:57:02;99456.0;;;10.6;80.13
48892;BME280;50130;52.150;5.236;2022-11-23T10:58:56;99458.0;;;10.66;80.24
48892;BME280;50130;52.150;5.236;2022-11-23T11:00:33;99455.0;;;10.74;80.67
48892;BME280;50130;52.150;5.236;2022-11-23T11:03:54;99453.0;;;10.69;80.62
48892;BME280;50130;52.150;5.236;2022-11-23T11:05:32;99450.0;;;10.66;80.42
48892;BME280;50130;52.150;5.236;2022-11-23T11:07:18;99450.0;;;10.74;79.72
48892;BME280;50130;52.150;5.236;2022-11-23T11:09:04;99449.0;;;10.74;80.16
48892;BME280;50130;52.150;5.236;2022-11-23T11:10:57;99446.0;;;10.65;80.3
48892;BME280;50130;52.150;5.236;2022-11-23T11:14:14;99458.0;;;10.74;80.52
48892;BME280;50130;52.150;5.236;2022-11-23T11:15:53;99447.0;;;10.65;80.37
48892;BME280;50130;52.150;5.236;2022-11-23T11:17:32;99447.0;;;10.63;80.16
48892;BME280;50130;52.150;5.236;2022-11-23T11:19:21;99455.0;;;10.6;81.84
48892;BME280;50130;52.150;5.236;2022-11-23T11:22:42;99451.0;;;10.55;81.16
48892;BME280;50130;52.150;5.236;2022-11-23T11:24:20;99452.0;;;10.61;81.09
48892;BME280;50130;52.150;5.236;2022-11-23T11:26:09;99455.0;;;10.64;80.06
48892;BME280;50130;52.150;5.236;2022-11-23T11:27:55;99465.0;;;10.59;80.69
48892;BME280;50130;52.150;5.236;2022-11-23T11:29:38;99456.0;;;10.69;80.27
48892;BME280;50130;52.150;5.236;2022-11-23T11:33:16;99456.0;;;10.52;79.98
48892;BME280;50130;52.150;5.236;2022-11-23T11:35:00;99451.0;;;10.51;80.83
48892;BME280;50130;52.150;5.236;2022-11-23T11:36:48;99455.0;;;10.53;81.09
48892;BME280;50130;52.150;5.236;2022-11-23T11:38:32;99441.0;;;10.5;80.91
48892;BME280;50130;52.150;5.236;2022-11-23T11:40:16;99440.0;;;10.47;80.94
48892;BME280;50130;52.150;5.236;2022-11-23T11:43:41;99424.0;;;10.56;80.16
48892;BME280;50130;52.150;5.236;2022-11-23T11:45:23;99416.0;;;10.59;80.47
48892;BME280;50130;52.150;5.236;2022-11-23T11:47:03;99411.0;;;10.69;79.72
48892;BME280;50130;52.150;5.236;2022-11-23T11:48:50;99408.0;;;10.78;80.36
48892;BME280;50130;52.150;5.236;2022-11-23T11:50:30;99408.0;;;10.69;79.86
48892;BME280;50130;52.150;5.236;2022-11-23T11:53:57;99407.0;;;10.84;79.64
48892;BME280;50130;52.150;5.236;2022-11-23T11:55:45;99407.0;;;10.82;79.56
48892;BME280;50130;52.150;5.236;2022-11-23T11:57:29;99396.0;;;10.75;80.14
48892;BME280;50130;52.150;5.236;2022-11-23T11:59:13;99384.0;;;10.74;78.73
48892;BME280;50130;52.150;5.236;2022-11-23T12:00:59;99380.0;;;10.94;78.94
48892;BME280;50130;52.150;5.236;2022-11-23T12:04:39;99390.0;;;10.78;78.64